FMNN Airport Information

Runway Information
Runway 05 Length 7185 ft width 148 ft
Elevation 37 ft Threshold 0 ft Heading 43
Runway 23 Length 7185 ft Width 148 ft
Elevation 16 ft Threshold 0 ft Heading 223
Airport Frequencies
Type A/G Name A/G VOICE Frequency 548.4 MHZ
Type TWR Name TWR Frequency 118.7 MHZ
Airport Navaids
Type VOR-DME Name Fascene Frequency 117500 KHZ
Type NDB Name Fascene Frequency 381 KHZ
Airport Weather Information & NOTAM
ADDS - METARS form results

(2119 UTC 12 December 2018)
Data provider http://aviationweather.gov/metar/data/
 
Forecast for: FMNN (NOSY BE/FASCENE , KM)
Text: TAF FMNN 121700Z 1218/1318 VRB05KT 9999 SCT020CB
Forecast period: 1800 UTC 12 December 2018 to 1800 UTC 13 December 2018
Forecast type: FROM: standard forecast or significant change
Winds: variable direction winds at 6 MPH (5 knots; 2.6 m/s)
Visibility: 6 or more miles 10+ km)
Ceiling: at least 12,000 feet AGL
Clouds: scattered clouds at 2000 feet AGL
Weather: no significant weather forecast for this period
Text: PROB40
Forecast period: 2200 UTC 12 December 2018 to 0600 UTC 13 December 2018
Forecast type: TEMPORARY: The following changes expected for less than half the time period
Winds: variable direction winds at 17 MPH (15 knots; 7.7 m/s)
Visibility: 2.49 miles (4.01 km)
Ceiling: unknown
Clouds: missing
Weather: TSRA  (rain associated with thunderstorm(s))